sensor_id;sensor_type;location;lat;lon;timestamp;P1;durP1;ratioP1;P2;durP2;ratioP2
60867;SDS011;46702;48.370;10.794;2023-05-07T00:00:47;3.30;;;2.47;;
60867;SDS011;46702;48.370;10.794;2023-05-07T00:03:13;3.20;;;2.72;;
60867;SDS011;46702;48.370;10.794;2023-05-07T00:05:38;2.95;;;2.60;;
60867;SDS011;46702;48.370;10.794;2023-05-07T00:08:04;5.95;;;2.60;;
60867;SDS011;46702;48.370;10.794;2023-05-07T00:10:30;2.85;;;2.53;;
60867;SDS011;46702;48.370;10.794;2023-05-07T00:12:55;4.00;;;3.00;;
60867;SDS011;46702;48.370;10.794;2023-05-07T00:15:21;5.20;;;3.22;;
60867;SDS011;46702;48.370;10.794;2023-05-07T00:17:47;5.53;;;3.20;;
60867;SDS011;46702;48.370;10.794;2023-05-07T00:20:12;6.28;;;3.50;;
60867;SDS011;46702;48.370;10.794;2023-05-07T00:22:38;3.97;;;3.58;;
60867;SDS011;46702;48.370;10.794;2023-05-07T00:25:04;6.40;;;3.20;;
60867;SDS011;46702;48.370;10.794;2023-05-07T00:27:30;4.20;;;3.63;;
60867;SDS011;46702;48.370;10.794;2023-05-07T00:29:55;4.25;;;3.13;;
60867;SDS011;46702;48.370;10.794;2023-05-07T00:32:21;3.85;;;3.40;;
60867;SDS011;46702;48.370;10.794;2023-05-07T00:34:47;3.60;;;3.05;;
60867;SDS011;46702;48.370;10.794;2023-05-07T00:37:12;3.97;;;3.17;;
60867;SDS011;46702;48.370;10.794;2023-05-07T00:39:38;3.63;;;3.22;;
60867;SDS011;46702;48.370;10.794;2023-05-07T00:42:03;4.82;;;3.47;;
60867;SDS011;46702;48.370;10.794;2023-05-07T00:44:29;4.25;;;3.60;;
60867;SDS011;46702;48.370;10.794;2023-05-07T00:46:55;4.18;;;3.58;;
60867;SDS011;46702;48.370;10.794;2023-05-07T00:49:22;9.57;;;4.35;;
60867;SDS011;46702;48.370;10.794;2023-05-07T00:51:51;5.63;;;4.00;;
60867;SDS011;46702;48.370;10.794;2023-05-07T00:54:17;5.43;;;3.97;;
60867;SDS011;46702;48.370;10.794;2023-05-07T00:56:43;5.97;;;3.90;;
60867;SDS011;46702;48.370;10.794;2023-05-07T00:59:09;4.65;;;3.60;;
60867;SDS011;46702;48.370;10.794;2023-05-07T01:01:35;5.57;;;3.70;;
60867;SDS011;46702;48.370;10.794;2023-05-07T01:04:01;4.15;;;3.65;;
60867;SDS011;46702;48.370;10.794;2023-05-07T01:06:27;7.40;;;4.20;;
60867;SDS011;46702;48.370;10.794;2023-05-07T01:08:55;3.10;;;2.80;;
60867;SDS011;46702;48.370;10.794;2023-05-07T01:11:22;2.60;;;2.40;;
60867;SDS011;46702;48.370;10.794;2023-05-07T01:13:48;2.85;;;2.65;;
60867;SDS011;46702;48.370;10.794;2023-05-07T01:16:15;2.95;;;2.75;;
60867;SDS011;46702;48.370;10.794;2023-05-07T01:18:41;2.83;;;2.58;;
60867;SDS011;46702;48.370;10.794;2023-05-07T01:21:07;2.90;;;2.70;;
60867;SDS011;46702;48.370;10.794;2023-05-07T01:23:35;3.22;;;2.92;;
60867;SDS011;46702;48.370;10.794;2023-05-07T01:26:01;4.03;;;2.90;;
60867;SDS011;46702;48.370;10.794;2023-05-07T01:28:27;4.10;;;3.22;;
60867;SDS011;46702;48.370;10.794;2023-05-07T01:30:53;4.03;;;3.03;;
60867;SDS011;46702;48.370;10.794;2023-05-07T01:33:24;4.68;;;2.95;;
60867;SDS011;46702;48.370;10.794;2023-05-07T01:35:53;4.00;;;3.15;;
60867;SDS011;46702;48.370;10.794;2023-05-07T01:38:20;3.30;;;3.00;;
60867;SDS011;46702;48.370;10.794;2023-05-07T01:40:47;3.38;;;3.03;;
60867;SDS011;46702;48.370;10.794;2023-05-07T01:43:13;3.10;;;2.85;;
60867;SDS011;46702;48.370;10.794;2023-05-07T01:45:39;3.45;;;3.13;;
60867;SDS011;46702;48.370;10.794;2023-05-07T01:48:05;3.38;;;3.03;;
60867;SDS011;46702;48.370;10.794;2023-05-07T01:50:33;3.83;;;3.25;;
60867;SDS011;46702;48.370;10.794;2023-05-07T01:52:59;4.00;;;3.60;;
60867;SDS011;46702;48.370;10.794;2023-05-07T01:55:27;3.33;;;3.05;;
60867;SDS011;46702;48.370;10.794;2023-05-07T01:57:53;3.80;;;3.40;;
60867;SDS011;46702;48.370;10.794;2023-05-07T02:00:18;3.33;;;3.03;;
60867;SDS011;46702;48.370;10.794;2023-05-07T02:02:44;4.15;;;2.80;;
60867;SDS011;46702;48.370;10.794;2023-05-07T02:05:10;10.05;;;3.42;;
60867;SDS011;46702;48.370;10.794;2023-05-07T02:07:35;4.88;;;3.13;;
60867;SDS011;46702;48.370;10.794;2023-05-07T02:10:01;5.68;;;3.15;;
60867;SDS011;46702;48.370;10.794;2023-05-07T02:12:28;3.22;;;2.40;;
60867;SDS011;46702;48.370;10.794;2023-05-07T02:14:53;5.68;;;3.47;;
60867;SDS011;46702;48.370;10.794;2023-05-07T02:17:19;9.05;;;3.30;;
60867;SDS011;46702;48.370;10.794;2023-05-07T02:19:45;8.82;;;3.70;;
60867;SDS011;46702;48.370;10.794;2023-05-07T02:22:10;6.15;;;3.63;;
60867;SDS011;46702;48.370;10.794;2023-05-07T02:24:36;15.95;;;3.65;;
60867;SDS011;46702;48.370;10.794;2023-05-07T02:27:01;12.20;;;4.30;;
60867;SDS011;46702;48.370;10.794;2023-05-07T02:29:28;4.30;;;3.42;;
60867;SDS011;46702;48.370;10.794;2023-05-07T02:31:54;6.45;;;3.25;;
60867;SDS011;46702;48.370;10.794;2023-05-07T02:34:20;6.82;;;3.35;;
60867;SDS011;46702;48.370;10.794;2023-05-07T02:36:46;9.60;;;2.97;;
60867;SDS011;46702;48.370;10.794;2023-05-07T02:39:12;12.60;;;3.85;;
60867;SDS011;46702;48.370;10.794;2023-05-07T02:41:38;8.15;;;3.75;;
60867;SDS011;46702;48.370;10.794;2023-05-07T02:44:04;12.18;;;4.13;;
60867;SDS011;46702;48.370;10.794;2023-05-07T02:46:29;4.40;;;3.70;;
60867;SDS011;46702;48.370;10.794;2023-05-07T02:48:55;6.72;;;3.67;;
60867;SDS011;46702;48.370;10.794;2023-05-07T02:51:21;6.30;;;3.15;;
60867;SDS011;46702;48.370;10.794;2023-05-07T02:53:47;8.30;;;4.13;;
60867;SDS011;46702;48.370;10.794;2023-05-07T02:56:13;8.27;;;3.65;;
60867;SDS011;46702;48.370;10.794;2023-05-07T02:58:39;9.63;;;3.55;;
60867;SDS011;46702;48.370;10.794;2023-05-07T03:01:05;5.40;;;3.72;;
60867;SDS011;46702;48.370;10.794;2023-05-07T03:03:31;5.55;;;3.38;;
60867;SDS011;46702;48.370;10.794;2023-05-07T03:05:57;4.60;;;3.50;;
60867;SDS011;46702;48.370;10.794;2023-05-07T03:08:22;5.07;;;3.20;;
60867;SDS011;46702;48.370;10.794;2023-05-07T03:10:49;3.80;;;3.40;;
60867;SDS011;46702;48.370;10.794;2023-05-07T03:13:14;4.88;;;4.10;;
60867;SDS011;46702;48.370;10.794;2023-05-07T03:15:40;5.20;;;3.53;;
60867;SDS011;46702;48.370;10.794;2023-05-07T03:18:06;4.60;;;3.80;;
60867;SDS011;46702;48.370;10.794;2023-05-07T03:20:31;5.65;;;4.00;;
60867;SDS011;46702;48.370;10.794;2023-05-07T03:22:57;4.72;;;4.25;;
60867;SDS011;46702;48.370;10.794;2023-05-07T03:25:23;3.88;;;3.58;;
60867;SDS011;46702;48.370;10.794;2023-05-07T03:27:48;4.57;;;3.75;;
60867;SDS011;46702;48.370;10.794;2023-05-07T03:30:14;3.85;;;3.08;;
60867;SDS011;46702;48.370;10.794;2023-05-07T03:32:39;4.45;;;3.28;;
60867;SDS011;46702;48.370;10.794;2023-05-07T03:35:05;3.72;;;3.08;;
60867;SDS011;46702;48.370;10.794;2023-05-07T03:37:32;3.95;;;3.55;;
60867;SDS011;46702;48.370;10.794;2023-05-07T03:39:58;2.63;;;2.45;;
60867;SDS011;46702;48.370;10.794;2023-05-07T03:42:23;3.10;;;2.80;;
60867;SDS011;46702;48.370;10.794;2023-05-07T03:44:49;3.00;;;2.80;;
60867;SDS011;46702;48.370;10.794;2023-05-07T03:47:15;3.40;;;3.10;;
60867;SDS011;46702;48.370;10.794;2023-05-07T03:49:40;3.58;;;3.28;;
60867;SDS011;46702;48.370;10.794;2023-05-07T03:52:06;3.17;;;2.88;;
60867;SDS011;46702;48.370;10.794;2023-05-07T03:54:32;3.60;;;2.95;;
60867;SDS011;46702;48.370;10.794;2023-05-07T03:56:57;2.92;;;2.72;;
60867;SDS011;46702;48.370;10.794;2023-05-07T03:59:23;7.00;;;3.40;;
60867;SDS011;46702;48.370;10.794;2023-05-07T04:01:49;4.80;;;3.30;;
60867;SDS011;46702;48.370;10.794;2023-05-07T04:04:15;5.82;;;3.55;;
60867;SDS011;46702;48.370;10.794;2023-05-07T04:06:41;5.03;;;3.20;;
60867;SDS011;46702;48.370;10.794;2023-05-07T04:09:06;3.88;;;3.42;;
60867;SDS011;46702;48.370;10.794;2023-05-07T04:11:32;4.35;;;3.20;;
60867;SDS011;46702;48.370;10.794;2023-05-07T04:13:58;4.18;;;3.55;;
60867;SDS011;46702;48.370;10.794;2023-05-07T04:16:23;13.25;;;7.20;;
60867;SDS011;46702;48.370;10.794;2023-05-07T04:18:49;8.23;;;5.80;;
60867;SDS011;46702;48.370;10.794;2023-05-07T04:21:15;14.65;;;8.20;;
60867;SDS011;46702;48.370;10.794;2023-05-07T04:23:42;11.27;;;6.17;;
60867;SDS011;46702;48.370;10.794;2023-05-07T04:26:08;7.00;;;5.00;;
60867;SDS011;46702;48.370;10.794;2023-05-07T04:28:34;5.22;;;3.80;;
60867;SDS011;46702;48.370;10.794;2023-05-07T04:31:01;3.60;;;3.13;;
60867;SDS011;46702;48.370;10.794;2023-05-07T04:33:27;3.33;;;3.03;;
60867;SDS011;46702;48.370;10.794;2023-05-07T04:35:52;4.05;;;3.00;;
60867;SDS011;46702;48.370;10.794;2023-05-07T04:38:18;2.65;;;2.45;;
60867;SDS011;46702;48.370;10.794;2023-05-07T04:40:44;1.98;;;1.85;;
60867;SDS011;46702;48.370;10.794;2023-05-07T04:43:10;2.58;;;1.90;;
60867;SDS011;46702;48.370;10.794;2023-05-07T04:45:36;1.98;;;1.50;;
60867;SDS011;46702;48.370;10.794;2023-05-07T04:48:02;2.60;;;2.30;;
60867;SDS011;46702;48.370;10.794;2023-05-07T04:50:28;2.08;;;1.98;;
60867;SDS011;46702;48.370;10.794;2023-05-07T04:52:53;2.33;;;2.13;;
60867;SDS011;46702;48.370;10.794;2023-05-07T04:55:19;2.40;;;2.22;;
60867;SDS011;46702;48.370;10.794;2023-05-07T04:57:45;3.08;;;2.25;;
60867;SDS011;46702;48.370;10.794;2023-05-07T05:00:10;5.32;;;2.60;;
60867;SDS011;46702;48.370;10.794;2023-05-07T05:02:39;3.22;;;2.95;;
60867;SDS011;46702;48.370;10.794;2023-05-07T05:05:05;3.83;;;3.40;;
60867;SDS011;46702;48.370;10.794;2023-05-07T05:07:31;3.90;;;3.50;;
60867;SDS011;46702;48.370;10.794;2023-05-07T05:09:57;4.53;;;3.78;;
60867;SDS011;46702;48.370;10.794;2023-05-07T05:12:23;4.60;;;3.40;;
60867;SDS011;46702;48.370;10.794;2023-05-07T05:14:51;7.15;;;4.13;;
60867;SDS011;46702;48.370;10.794;2023-05-07T05:17:16;5.18;;;4.10;;
60867;SDS011;46702;48.370;10.794;2023-05-07T05:19:42;4.95;;;3.92;;
60867;SDS011;46702;48.370;10.794;2023-05-07T05:22:08;5.80;;;4.43;;
60867;SDS011;46702;48.370;10.794;2023-05-07T05:24:33;6.10;;;4.80;;
60867;SDS011;46702;48.370;10.794;2023-05-07T05:26:59;6.63;;;4.38;;
60867;SDS011;46702;48.370;10.794;2023-05-07T05:29:26;5.43;;;4.47;;
60867;SDS011;46702;48.370;10.794;2023-05-07T05:31:52;5.80;;;4.35;;
60867;SDS011;46702;48.370;10.794;2023-05-07T05:34:18;4.65;;;4.10;;
60867;SDS011;46702;48.370;10.794;2023-05-07T05:36:44;5.82;;;5.05;;
60867;SDS011;46702;48.370;10.794;2023-05-07T05:39:10;6.68;;;5.35;;
60867;SDS011;46702;48.370;10.794;2023-05-07T05:41:36;8.10;;;5.10;;
60867;SDS011;46702;48.370;10.794;2023-05-07T05:44:01;6.82;;;6.13;;
60867;SDS011;46702;48.370;10.794;2023-05-07T05:46:27;7.90;;;5.88;;
60867;SDS011;46702;48.370;10.794;2023-05-07T05:48:53;7.20;;;5.75;;
60867;SDS011;46702;48.370;10.794;2023-05-07T05:51:18;7.57;;;5.53;;
60867;SDS011;46702;48.370;10.794;2023-05-07T05:53:44;7.22;;;5.60;;
60867;SDS011;46702;48.370;10.794;2023-05-07T05:56:09;7.20;;;5.40;;
60867;SDS011;46702;48.370;10.794;2023-05-07T05:58:35;7.68;;;5.88;;
60867;SDS011;46702;48.370;10.794;2023-05-07T06:01:01;6.88;;;5.90;;
60867;SDS011;46702;48.370;10.794;2023-05-07T06:03:27;7.47;;;5.70;;
60867;SDS011;46702;48.370;10.794;2023-05-07T06:05:53;7.15;;;5.55;;
60867;SDS011;46702;48.370;10.794;2023-05-07T06:08:18;8.15;;;6.90;;
60867;SDS011;46702;48.370;10.794;2023-05-07T06:10:44;7.15;;;6.45;;
60867;SDS011;46702;48.370;10.794;2023-05-07T06:13:10;9.20;;;6.47;;
60867;SDS011;46702;48.370;10.794;2023-05-07T06:15:36;7.93;;;6.50;;
60867;SDS011;46702;48.370;10.794;2023-05-07T06:18:02;7.47;;;6.13;;
60867;SDS011;46702;48.370;10.794;2023-05-07T06:20:27;7.68;;;6.55;;
60867;SDS011;46702;48.370;10.794;2023-05-07T06:22:53;8.90;;;6.68;;
60867;SDS011;46702;48.370;10.794;2023-05-07T06:25:19;8.18;;;6.25;;
60867;SDS011;46702;48.370;10.794;2023-05-07T06:27:45;7.30;;;5.68;;
60867;SDS011;46702;48.370;10.794;2023-05-07T06:30:10;7.47;;;6.15;;
60867;SDS011;46702;48.370;10.794;2023-05-07T06:32:36;8.68;;;5.88;;
60867;SDS011;46702;48.370;10.794;2023-05-07T06:35:02;6.80;;;5.80;;
60867;SDS011;46702;48.370;10.794;2023-05-07T06:37:28;7.22;;;5.70;;
60867;SDS011;46702;48.370;10.794;2023-05-07T06:39:53;6.32;;;5.60;;
60867;SDS011;46702;48.370;10.794;2023-05-07T06:42:19;6.07;;;5.47;;
60867;SDS011;46702;48.370;10.794;2023-05-07T06:44:44;6.78;;;5.68;;
60867;SDS011;46702;48.370;10.794;2023-05-07T06:47:10;6.78;;;5.93;;
60867;SDS011;46702;48.370;10.794;2023-05-07T06:49:36;7.82;;;6.00;;
60867;SDS011;46702;48.370;10.794;2023-05-07T06:52:01;7.38;;;5.75;;
60867;SDS011;46702;48.370;10.794;2023-05-07T06:54:27;7.20;;;5.70;;
60867;SDS011;46702;48.370;10.794;2023-05-07T06:56:53;6.85;;;5.55;;
60867;SDS011;46702;48.370;10.794;2023-05-07T06:59:19;6.03;;;5.45;;
60867;SDS011;46702;48.370;10.794;2023-05-07T07:01:45;6.53;;;5.82;;
60867;SDS011;46702;48.370;10.794;2023-05-07T07:04:10;6.47;;;5.88;;
60867;SDS011;46702;48.370;10.794;2023-05-07T07:06:36;6.80;;;5.75;;
60867;SDS011;46702;48.370;10.794;2023-05-07T07:09:02;7.13;;;6.22;;
60867;SDS011;46702;48.370;10.794;2023-05-07T07:11:27;7.55;;;5.93;;
60867;SDS011;46702;48.370;10.794;2023-05-07T07:13:53;6.57;;;5.97;;
60867;SDS011;46702;48.370;10.794;2023-05-07T07:16:19;6.70;;;5.57;;
60867;SDS011;46702;48.370;10.794;2023-05-07T07:18:46;9.20;;;6.35;;
60867;SDS011;46702;48.370;10.794;2023-05-07T07:21:11;7.05;;;6.35;;
60867;SDS011;46702;48.370;10.794;2023-05-07T07:23:37;9.00;;;6.00;;
60867;SDS011;46702;48.370;10.794;2023-05-07T07:26:02;7.00;;;6.28;;
60867;SDS011;46702;48.370;10.794;2023-05-07T07:28:28;7.53;;;5.82;;
60867;SDS011;46702;48.370;10.794;2023-05-07T07:30:54;6.13;;;5.50;;
60867;SDS011;46702;48.370;10.794;2023-05-07T07:33:19;7.25;;;6.00;;
60867;SDS011;46702;48.370;10.794;2023-05-07T07:35:45;6.05;;;5.03;;
60867;SDS011;46702;48.370;10.794;2023-05-07T07:38:10;7.75;;;5.68;;
60867;SDS011;46702;48.370;10.794;2023-05-07T07:40:36;6.88;;;5.57;;
60867;SDS011;46702;48.370;10.794;2023-05-07T07:43:02;6.68;;;5.28;;
60867;SDS011;46702;48.370;10.794;2023-05-07T07:45:28;6.18;;;4.95;;
60867;SDS011;46702;48.370;10.794;2023-05-07T07:47:54;6.95;;;5.93;;
60867;SDS011;46702;48.370;10.794;2023-05-07T07:50:19;7.32;;;5.72;;
60867;SDS011;46702;48.370;10.794;2023-05-07T07:52:45;6.25;;;5.25;;
60867;SDS011;46702;48.370;10.794;2023-05-07T07:55:11;6.43;;;5.63;;
60867;SDS011;46702;48.370;10.794;2023-05-07T07:57:37;6.90;;;5.25;;
60867;SDS011;46702;48.370;10.794;2023-05-07T08:00:03;5.93;;;5.20;;
60867;SDS011;46702;48.370;10.794;2023-05-07T08:02:30;6.43;;;5.57;;
60867;SDS011;46702;48.370;10.794;2023-05-07T08:04:56;5.93;;;5.15;;
60867;SDS011;46702;48.370;10.794;2023-05-07T08:07:21;6.28;;;5.32;;
60867;SDS011;46702;48.370;10.794;2023-05-07T08:09:47;5.72;;;4.97;;
60867;SDS011;46702;48.370;10.794;2023-05-07T08:12:13;6.15;;;5.03;;
60867;SDS011;46702;48.370;10.794;2023-05-07T08:14:39;7.47;;;4.80;;
60867;SDS011;46702;48.370;10.794;2023-05-07T08:17:06;4.90;;;4.40;;
60867;SDS011;46702;48.370;10.794;2023-05-07T08:19:31;5.18;;;4.60;;
60867;SDS011;46702;48.370;10.794;2023-05-07T08:21:57;4.25;;;3.90;;
60867;SDS011;46702;48.370;10.794;2023-05-07T08:24:22;7.35;;;5.10;;
60867;SDS011;46702;48.370;10.794;2023-05-07T08:26:48;4.60;;;4.20;;
60867;SDS011;46702;48.370;10.794;2023-05-07T08:29:14;5.30;;;4.80;;
60867;SDS011;46702;48.370;10.794;2023-05-07T08:31:40;5.07;;;4.50;;
60867;SDS011;46702;48.370;10.794;2023-05-07T08:34:06;4.80;;;4.32;;
60867;SDS011;46702;48.370;10.794;2023-05-07T08:36:32;5.47;;;4.68;;
60867;SDS011;46702;48.370;10.794;2023-05-07T08:38:58;6.43;;;4.32;;
60867;SDS011;46702;48.370;10.794;2023-05-07T08:41:24;6.28;;;4.28;;
60867;SDS011;46702;48.370;10.794;2023-05-07T08:43:50;4.38;;;3.97;;
60867;SDS011;46702;48.370;10.794;2023-05-07T08:46:17;5.68;;;3.83;;
60867;SDS011;46702;48.370;10.794;2023-05-07T08:48:44;5.07;;;4.13;;
60867;SDS011;46702;48.370;10.794;2023-05-07T08:51:13;4.82;;;3.90;;
60867;SDS011;46702;48.370;10.794;2023-05-07T08:53:41;7.03;;;4.07;;
60867;SDS011;46702;48.370;10.794;2023-05-07T08:56:08;4.28;;;3.88;;
60867;SDS011;46702;48.370;10.794;2023-05-07T08:58:34;4.30;;;3.90;;
60867;SDS011;46702;48.370;10.794;2023-05-07T09:01:01;4.43;;;3.92;;
60867;SDS011;46702;48.370;10.794;2023-05-07T09:03:34;7.25;;;4.47;;
60867;SDS011;46702;48.370;10.794;2023-05-07T09:05:59;5.43;;;4.43;;
60867;SDS011;46702;48.370;10.794;2023-05-07T09:08:28;5.18;;;4.55;;
60867;SDS011;46702;48.370;10.794;2023-05-07T09:10:54;4.60;;;4.20;;
60867;SDS011;46702;48.370;10.794;2023-05-07T09:13:20;4.00;;;3.47;;
60867;SDS011;46702;48.370;10.794;2023-05-07T09:15:49;5.20;;;3.75;;
60867;SDS011;46702;48.370;10.794;2023-05-07T09:18:14;5.78;;;4.28;;
60867;SDS011;46702;48.370;10.794;2023-05-07T09:20:40;4.60;;;3.67;;
60867;SDS011;46702;48.370;10.794;2023-05-07T09:23:06;5.80;;;3.95;;
60867;SDS011;46702;48.370;10.794;2023-05-07T09:25:33;3.47;;;3.17;;
60867;SDS011;46702;48.370;10.794;2023-05-07T09:28:00;5.63;;;3.10;;
60867;SDS011;46702;48.370;10.794;2023-05-07T09:30:33;5.47;;;3.58;;
60867;SDS011;46702;48.370;10.794;2023-05-07T09:33:00;5.53;;;3.30;;
60867;SDS011;46702;48.370;10.794;2023-05-07T09:35:28;3.33;;;3.03;;
60867;SDS011;46702;48.370;10.794;2023-05-07T09:37:58;3.88;;;3.20;;
60867;SDS011;46702;48.370;10.794;2023-05-07T09:40:26;2.70;;;2.50;;
60867;SDS011;46702;48.370;10.794;2023-05-07T09:42:54;4.90;;;2.90;;
60867;SDS011;46702;48.370;10.794;2023-05-07T09:45:29;2.33;;;2.13;;
60867;SDS011;46702;48.370;10.794;2023-05-07T09:47:57;2.47;;;2.28;;
60867;SDS011;46702;48.370;10.794;2023-05-07T09:50:26;3.83;;;3.03;;
60867;SDS011;46702;48.370;10.794;2023-05-07T09:52:54;2.58;;;2.38;;
60867;SDS011;46702;48.370;10.794;2023-05-07T09:55:21;2.53;;;2.20;;
60867;SDS011;46702;48.370;10.794;2023-05-07T09:57:50;2.30;;;1.83;;
60867;SDS011;46702;48.370;10.794;2023-05-07T10:00:20;3.03;;;2.45;;
60867;SDS011;46702;48.370;10.794;2023-05-07T10:04:49;2.65;;;2.00;;
60867;SDS011;46702;48.370;10.794;2023-05-07T10:07:16;3.85;;;2.08;;
60867;SDS011;46702;48.370;10.794;2023-05-07T10:09:42;2.05;;;1.92;;
60867;SDS011;46702;48.370;10.794;2023-05-07T10:12:09;2.47;;;1.97;;
60867;SDS011;46702;48.370;10.794;2023-05-07T10:14:35;1.77;;;1.67;;
60867;SDS011;46702;48.370;10.794;2023-05-07T10:17:02;1.80;;;1.63;;
60867;SDS011;46702;48.370;10.794;2023-05-07T10:19:27;3.00;;;1.65;;
60867;SDS011;46702;48.370;10.794;2023-05-07T10:21:55;2.63;;;1.70;;
60867;SDS011;46702;48.370;10.794;2023-05-07T10:24:34;1.52;;;1.42;;
60867;SDS011;46702;48.370;10.794;2023-05-07T10:27:05;1.58;;;1.48;;
60867;SDS011;46702;48.370;10.794;2023-05-07T10:29:37;3.47;;;2.40;;
60867;SDS011;46702;48.370;10.794;2023-05-07T10:34:50;1.80;;;1.70;;
60867;SDS011;46702;48.370;10.794;2023-05-07T10:37:20;2.15;;;1.40;;
60867;SDS011;46702;48.370;10.794;2023-05-07T10:39:46;1.73;;;1.40;;
60867;SDS011;46702;48.370;10.794;2023-05-07T10:42:13;1.70;;;1.60;;
60867;SDS011;46702;48.370;10.794;2023-05-07T10:44:40;3.33;;;2.10;;
60867;SDS011;46702;48.370;10.794;2023-05-07T10:47:09;2.05;;;1.40;;
60867;SDS011;46702;48.370;10.794;2023-05-07T10:54:40;2.13;;;1.30;;
60867;SDS011;46702;48.370;10.794;2023-05-07T11:00:00;1.42;;;1.33;;
60867;SDS011;46702;48.370;10.794;2023-05-07T11:05:24;1.95;;;1.20;;
60867;SDS011;46702;48.370;10.794;2023-05-07T11:08:00;1.20;;;1.20;;
60867;SDS011;46702;48.370;10.794;2023-05-07T11:13:40;2.20;;;1.60;;
60867;SDS011;46702;48.370;10.794;2023-05-07T11:16:24;1.40;;;1.30;;
60867;SDS011;46702;48.370;10.794;2023-05-07T11:18:51;1.60;;;1.50;;
60867;SDS011;46702;48.370;10.794;2023-05-07T11:24:06;2.42;;;1.50;;
60867;SDS011;46702;48.370;10.794;2023-05-07T11:26:53;1.10;;;1.10;;
60867;SDS011;46702;48.370;10.794;2023-05-07T11:29:19;1.35;;;1.23;;
60867;SDS011;46702;48.370;10.794;2023-05-07T11:31:49;1.40;;;1.30;;
60867;SDS011;46702;48.370;10.794;2023-05-07T11:34:20;1.13;;;1.10;;
60867;SDS011;46702;48.370;10.794;2023-05-07T11:36:51;2.83;;;1.30;;
60867;SDS011;46702;48.370;10.794;2023-05-07T11:39:51;2.40;;;1.40;;
60867;SDS011;46702;48.370;10.794;2023-05-07T11:42:28;1.45;;;1.35;;
60867;SDS011;46702;48.370;10.794;2023-05-07T11:45:02;1.30;;;1.20;;
60867;SDS011;46702;48.370;10.794;2023-05-07T11:47:32;1.92;;;1.40;;
60867;SDS011;46702;48.370;10.794;2023-05-07T11:50:02;1.40;;;1.30;;
60867;SDS011;46702;48.370;10.794;2023-05-07T11:52:30;1.27;;;1.25;;
60867;SDS011;46702;48.370;10.794;2023-05-07T11:54:56;1.88;;;1.77;;
60867;SDS011;46702;48.370;10.794;2023-05-07T11:57:23;1.50;;;1.38;;
60867;SDS011;46702;48.370;10.794;2023-05-07T11:59:53;2.10;;;1.50;;
60867;SDS011;46702;48.370;10.794;2023-05-07T12:02:19;2.90;;;1.73;;
60867;SDS011;46702;48.370;10.794;2023-05-07T12:04:45;3.67;;;1.60;;
60867;SDS011;46702;48.370;10.794;2023-05-07T12:07:11;2.00;;;1.70;;
60867;SDS011;46702;48.370;10.794;2023-05-07T12:09:43;1.95;;;1.50;;
60867;SDS011;46702;48.370;10.794;2023-05-07T12:12:09;2.88;;;1.50;;
60867;SDS011;46702;48.370;10.794;2023-05-07T12:14:42;1.90;;;1.65;;
60867;SDS011;46702;48.370;10.794;2023-05-07T12:17:09;2.45;;;1.80;;
60867;SDS011;46702;48.370;10.794;2023-05-07T12:19:39;2.53;;;1.63;;
60867;SDS011;46702;48.370;10.794;2023-05-07T12:22:09;1.80;;;1.60;;
60867;SDS011;46702;48.370;10.794;2023-05-07T12:24:45;1.67;;;1.52;;
60867;SDS011;46702;48.370;10.794;2023-05-07T12:27:13;2.90;;;1.48;;
60867;SDS011;46702;48.370;10.794;2023-05-07T12:29:47;1.77;;;1.40;;
60867;SDS011;46702;48.370;10.794;2023-05-07T12:32:18;1.70;;;1.60;;
60867;SDS011;46702;48.370;10.794;2023-05-07T12:34:45;1.60;;;1.50;;
60867;SDS011;46702;48.370;10.794;2023-05-07T12:37:12;1.88;;;1.67;;
60867;SDS011;46702;48.370;10.794;2023-05-07T12:39:38;2.67;;;1.73;;
60867;SDS011;46702;48.370;10.794;2023-05-07T12:42:08;2.58;;;1.70;;
60867;SDS011;46702;48.370;10.794;2023-05-07T12:44:40;1.90;;;1.65;;
60867;SDS011;46702;48.370;10.794;2023-05-07T12:47:06;2.03;;;1.70;;
60867;SDS011;46702;48.370;10.794;2023-05-07T12:49:33;2.40;;;1.70;;
60867;SDS011;46702;48.370;10.794;2023-05-07T12:52:01;2.00;;;1.80;;
60867;SDS011;46702;48.370;10.794;2023-05-07T12:54:30;2.53;;;2.00;;
60867;SDS011;46702;48.370;10.794;2023-05-07T12:57:01;1.90;;;1.80;;
60867;SDS011;46702;48.370;10.794;2023-05-07T12:59:38;2.08;;;1.85;;
60867;SDS011;46702;48.370;10.794;2023-05-07T13:02:06;2.38;;;1.73;;
60867;SDS011;46702;48.370;10.794;2023-05-07T13:04:32;3.03;;;1.70;;
60867;SDS011;46702;48.370;10.794;2023-05-07T13:06:58;2.22;;;2.03;;
60867;SDS011;46702;48.370;10.794;2023-05-07T13:09:24;2.38;;;2.15;;
60867;SDS011;46702;48.370;10.794;2023-05-07T13:16:46;2.70;;;1.95;;
60867;SDS011;46702;48.370;10.794;2023-05-07T13:19:23;2.83;;;1.90;;
60867;SDS011;46702;48.370;10.794;2023-05-07T13:21:49;2.17;;;1.98;;
60867;SDS011;46702;48.370;10.794;2023-05-07T13:24:15;2.30;;;1.80;;
60867;SDS011;46702;48.370;10.794;2023-05-07T13:26:41;2.78;;;1.70;;
60867;SDS011;46702;48.370;10.794;2023-05-07T13:29:06;2.28;;;1.83;;
60867;SDS011;46702;48.370;10.794;2023-05-07T13:31:32;1.65;;;1.55;;
60867;SDS011;46702;48.370;10.794;2023-05-07T13:33:58;2.20;;;2.00;;
60867;SDS011;46702;48.370;10.794;2023-05-07T13:36:24;3.28;;;2.10;;
60867;SDS011;46702;48.370;10.794;2023-05-07T13:38:50;2.72;;;2.10;;
60867;SDS011;46702;48.370;10.794;2023-05-07T13:41:19;2.33;;;2.03;;
60867;SDS011;46702;48.370;10.794;2023-05-07T13:43:45;2.40;;;2.20;;
60867;SDS011;46702;48.370;10.794;2023-05-07T13:46:10;2.35;;;2.08;;
60867;SDS011;46702;48.370;10.794;2023-05-07T13:48:36;1.83;;;1.73;;
60867;SDS011;46702;48.370;10.794;2023-05-07T13:51:02;3.00;;;1.65;;
60867;SDS011;46702;48.370;10.794;2023-05-07T13:53:27;2.60;;;1.80;;
60867;SDS011;46702;48.370;10.794;2023-05-07T13:55:53;5.03;;;2.42;;
60867;SDS011;46702;48.370;10.794;2023-05-07T13:58:21;2.25;;;2.00;;
60867;SDS011;46702;48.370;10.794;2023-05-07T14:00:48;2.20;;;2.00;;
60867;SDS011;46702;48.370;10.794;2023-05-07T14:03:13;2.13;;;1.92;;
60867;SDS011;46702;48.370;10.794;2023-05-07T14:05:39;2.22;;;2.00;;
60867;SDS011;46702;48.370;10.794;2023-05-07T14:08:05;2.50;;;1.90;;
60867;SDS011;46702;48.370;10.794;2023-05-07T14:10:32;3.23;;;2.30;;
60867;SDS011;46702;48.370;10.794;2023-05-07T14:12:59;2.13;;;1.92;;
60867;SDS011;46702;48.370;10.794;2023-05-07T14:15:25;2.35;;;1.90;;
60867;SDS011;46702;48.370;10.794;2023-05-07T14:17:51;3.80;;;2.10;;
60867;SDS011;46702;48.370;10.794;2023-05-07T14:20:20;1.92;;;1.77;;
60867;SDS011;46702;48.370;10.794;2023-05-07T14:22:46;2.20;;;1.80;;
60867;SDS011;46702;48.370;10.794;2023-05-07T14:25:11;2.08;;;1.52;;
60867;SDS011;46702;48.370;10.794;2023-05-07T14:27:37;2.90;;;2.10;;
60867;SDS011;46702;48.370;10.794;2023-05-07T14:30:03;3.83;;;2.00;;
60867;SDS011;46702;48.370;10.794;2023-05-07T14:32:29;2.65;;;1.92;;
60867;SDS011;46702;48.370;10.794;2023-05-07T14:34:55;2.50;;;2.05;;
60867;SDS011;46702;48.370;10.794;2023-05-07T14:37:21;2.67;;;1.95;;
60867;SDS011;46702;48.370;10.794;2023-05-07T14:39:46;3.05;;;2.17;;
60867;SDS011;46702;48.370;10.794;2023-05-07T14:42:12;3.05;;;1.85;;
60867;SDS011;46702;48.370;10.794;2023-05-07T14:44:38;1.98;;;1.85;;
60867;SDS011;46702;48.370;10.794;2023-05-07T14:47:06;2.00;;;1.80;;
60867;SDS011;46702;48.370;10.794;2023-05-07T14:49:33;2.10;;;1.90;;
60867;SDS011;46702;48.370;10.794;2023-05-07T14:51:59;1.98;;;1.88;;
60867;SDS011;46702;48.370;10.794;2023-05-07T14:54:25;2.00;;;1.90;;
60867;SDS011;46702;48.370;10.794;2023-05-07T14:56:51;1.98;;;1.83;;